createdAt,value
2022-08-22T00:00:43.682Z,98230.38
2022-08-22T00:01:50.999Z,98226.16
2022-08-22T00:02:48.340Z,98217.00
2022-08-22T00:02:54.875Z,98228.84
2022-08-22T00:02:58.997Z,98238.19
2022-08-22T00:03:06.480Z,98239.81
2022-08-22T00:03:06.869Z,98230.19
2022-08-22T00:03:07.953Z,98219.50
2022-08-22T00:03:15.778Z,98228.06
2022-08-22T00:04:23.695Z,98218.81
2022-08-22T00:05:31.866Z,98223.78
2022-08-22T00:06:33.215Z,98221.44
2022-08-22T00:07:34.604Z,98226.78
2022-08-22T00:08:43.874Z,98223.34
2022-08-22T00:09:50.762Z,98216.50
2022-08-22T00:11:10.946Z,98227.28
2022-08-22T00:12:18.194Z,98220.03
2022-08-22T00:13:25.411Z,98219.34
2022-08-22T00:14:46.775Z,98220.19
2022-08-22T00:16:06.762Z,98220.38
2022-08-22T00:17:26.722Z,98214.72
2022-08-22T00:18:36.178Z,98216.69
2022-08-22T00:19:37.593Z,98221.38
2022-08-22T00:21:05.328Z,98218.69
2022-08-22T00:22:17.757Z,98213.72
2022-08-22T00:23:27.185Z,98215.34
2022-08-22T00:24:41.667Z,98215.78
2022-08-22T00:25:49.137Z,98218.97
2022-08-22T00:26:50.603Z,98220.09
2022-08-22T00:27:55.073Z,98220.50
2022-08-22T00:28:59.574Z,98224.72
2022-08-22T00:30:07.643Z,98217.03
2022-08-22T00:31:21.291Z,98217.41
2022-08-22T00:32:22.661Z,98217.44
2022-08-22T00:33:27.502Z,98215.91
2022-08-22T00:34:43.336Z,98214.72
2022-08-22T00:35:48.063Z,98214.72
2022-08-22T00:36:52.260Z,98214.28
2022-08-22T00:38:00.335Z,98218.47
2022-08-22T00:39:15.668Z,98213.97
2022-08-22T00:40:28.948Z,98212.31
2022-08-22T00:41:33.222Z,98217.63
2022-08-22T00:42:43.552Z,98217.56
2022-08-22T00:44:00.164Z,98220.22
2022-08-22T00:45:25.505Z,98222.81
2022-08-22T00:46:33.004Z,98216.63
2022-08-22T00:47:37.147Z,98214.25
2022-08-22T00:48:57.318Z,98222.66
2022-08-22T00:50:17.439Z,98217.59
2022-08-22T00:51:21.930Z,98222.44
2022-08-22T00:52:36.714Z,98220.06
2022-08-22T00:53:50.778Z,98213.09
2022-08-22T00:55:10.348Z,98215.28
2022-08-22T00:56:30.399Z,98212.56
2022-08-22T00:57:50.667Z,98209.03
2022-08-22T00:59:22.828Z,98215.81
2022-08-22T01:00:24.856Z,98208.78
2022-08-22T01:01:37.824Z,98206.09
2022-08-22T01:02:56.093Z,98208.34
2022-08-22T01:04:03.602Z,98206.78
2022-08-22T01:05:20.186Z,98208.69
2022-08-22T01:06:40.197Z,98201.06
2022-08-22T01:08:00.273Z,98207.56
2022-08-22T01:09:01.819Z,98213.28
2022-08-22T01:10:42.030Z,98210.97
2022-08-22T01:12:01.674Z,98210.91
2022-08-22T01:13:09.058Z,98213.16
2022-08-22T01:14:34.853Z,98215.78
2022-08-22T01:15:37.637Z,98214.50
2022-08-22T01:16:45.052Z,98217.53
2022-08-22T01:17:49.493Z,98218.59
2022-08-22T01:18:59.566Z,98212.38
2022-08-22T01:20:00.952Z,98213.41
2022-08-22T01:21:11.408Z,98219.50
2022-08-22T01:22:12.813Z,98219.41
2022-08-22T01:23:20.153Z,98216.66
2022-08-22T01:24:40.465Z,98218.50
2022-08-22T01:25:48.952Z,98215.31
2022-08-22T01:26:52.276Z,98214.13
2022-08-22T01:28:05.675Z,98220.94
2022-08-22T01:29:10.577Z,98214.47
2022-08-22T01:30:15.092Z,98211.28
2022-08-22T01:31:16.529Z,98219.31
2022-08-22T01:32:23.881Z,98220.78
2022-08-22T01:33:40.379Z,98219.25
2022-08-22T01:34:55.413Z,98222.22
2022-08-22T01:36:13.646Z,98217.13
2022-08-22T01:37:33.928Z,98216.59
2022-08-22T01:39:00.405Z,98216.44
2022-08-22T01:40:01.829Z,98214.47
2022-08-22T01:41:26.834Z,98209.03
2022-08-22T01:42:36.823Z,98216.22
2022-08-22T01:44:00.258Z,98210.78
2022-08-22T01:45:14.326Z,98211.47
2022-08-22T01:46:30.783Z,98212.16
2022-08-22T01:47:54.240Z,98213.63
2022-08-22T01:49:04.136Z,98214.34
2022-08-22T01:50:24.135Z,98218.91
2022-08-22T01:51:43.878Z,98215.38
2022-08-22T01:52:48.374Z,98217.53
2022-08-22T01:54:09.184Z,98224.00
2022-08-22T01:55:24.162Z,98222.03
2022-08-22T01:56:31.327Z,98222.81
2022-08-22T01:57:47.971Z,98222.91
2022-08-22T01:59:01.818Z,98225.81
2022-08-22T02:00:15.248Z,98223.13
2022-08-22T02:01:34.769Z,98225.38
2022-08-22T02:02:36.124Z,98227.63
2022-08-22T02:03:55.021Z,98222.97
2022-08-22T02:05:21.726Z,98228.66
2022-08-22T02:06:31.510Z,98230.91
2022-08-22T02:07:53.243Z,98226.25
2022-08-22T02:09:00.691Z,98223.13
2022-08-22T02:10:11.511Z,98221.13
2022-08-22T02:11:31.261Z,98225.25
2022-08-22T02:12:37.258Z,98220.59
2022-08-22T02:13:44.791Z,98222.41
2022-08-22T02:15:09.243Z,98219.66
2022-08-22T02:16:32.851Z,98212.06
2022-08-22T02:17:52.925Z,98212.41
2022-08-22T02:19:00.677Z,98212.66
2022-08-22T02:20:20.597Z,98215.22
2022-08-22T02:21:30.869Z,98215.94
2022-08-22T02:22:51.745Z,98212.50
2022-08-22T02:23:58.554Z,98212.50
2022-08-22T02:25:17.267Z,98214.81
2022-08-22T02:26:24.490Z,98213.59
2022-08-22T02:27:33.794Z,98211.38
2022-08-22T02:28:57.127Z,98212.81
2022-08-22T02:30:11.823Z,98209.00
2022-08-22T02:31:19.526Z,98210.59
2022-08-22T02:32:30.139Z,98202.56
2022-08-22T02:33:34.629Z,98212.03
2022-08-22T02:34:42.290Z,98204.69
2022-08-22T02:35:50.726Z,98211.16
2022-08-22T02:37:12.356Z,98209.97
2022-08-22T02:38:19.450Z,98204.19
2022-08-22T02:39:35.709Z,98206.44
2022-08-22T02:40:39.038Z,98206.44
2022-08-22T02:41:55.945Z,98206.44
2022-08-22T02:43:03.393Z,98204.88
2022-08-22T02:44:14.751Z,98199.84
2022-08-22T02:45:21.230Z,98198.75
2022-08-22T02:46:42.899Z,98200.31
2022-08-22T02:47:58.746Z,98199.94
2022-08-22T02:49:09.243Z,98198.16
2022-08-22T02:50:17.637Z,98199.03
2022-08-22T02:51:23.624Z,98191.44
2022-08-22T02:52:48.098Z,98190.41
2022-08-22T02:54:08.266Z,98186.69
2022-08-22T02:55:20.632Z,98185.31
2022-08-22T02:56:33.239Z,98182.38
2022-08-22T02:57:54.863Z,98181.03
2022-08-22T02:59:19.301Z,98183.00
2022-08-22T03:00:31.385Z,98186.00
2022-08-22T03:01:36.393Z,98189.91
2022-08-22T03:02:39.999Z,98187.22
2022-08-22T03:03:43.299Z,98183.00
2022-08-22T03:04:47.288Z,98187.59
2022-08-22T03:05:51.022Z,98187.59
2022-08-22T03:06:58.262Z,98189.03
2022-08-22T03:08:04.780Z,98188.59
2022-08-22T03:09:26.470Z,98194.72
2022-08-22T03:10:29.978Z,98196.63
2022-08-22T03:11:33.136Z,98198.53
2022-08-22T03:12:34.514Z,98196.97
2022-08-22T03:13:37.878Z,98198.53
2022-08-22T03:14:42.531Z,98200.06
2022-08-22T03:16:06.926Z,98203.63
2022-08-22T03:17:14.039Z,98195.34
2022-08-22T03:18:21.361Z,98201.06
2022-08-22T03:19:43.658Z,98202.97
2022-08-22T03:20:47.693Z,98191.28
2022-08-22T03:21:49.164Z,98198.28
2022-08-22T03:22:50.523Z,98198.28
2022-08-22T03:23:59.197Z,98202.59
2022-08-22T03:25:23.712Z,98195.63
2022-08-22T03:26:33.039Z,98202.84
2022-08-22T03:27:38.828Z,98198.16
2022-08-22T03:28:40.236Z,98195.16
2022-08-22T03:30:05.636Z,98197.06
2022-08-22T03:31:16.182Z,98200.50
2022-08-22T03:32:22.484Z,98201.19
2022-08-22T03:33:26.110Z,98201.88
2022-08-22T03:34:27.526Z,98203.69
2022-08-22T03:35:50.245Z,98205.50
2022-08-22T03:37:10.250Z,98201.97
2022-08-22T03:38:34.739Z,98204.53
2022-08-22T03:39:47.584Z,98203.66
2022-08-22T03:40:55.295Z,98209.28
2022-08-22T03:42:08.371Z,98203.50
2022-08-22T03:43:28.593Z,98204.88
2022-08-22T03:44:56.167Z,98207.88
2022-08-22T03:46:00.483Z,98206.22
2022-08-22T03:47:01.922Z,98203.91
2022-08-22T03:48:15.603Z,98201.91
2022-08-22T03:49:19.933Z,98209.06
2022-08-22T03:50:56.864Z,98204.81
2022-08-22T03:52:06.557Z,98202.50
2022-08-22T03:53:19.736Z,98207.06
2022-08-22T03:54:39.953Z,98208.19
2022-08-22T03:55:59.893Z,98198.94
2022-08-22T03:57:04.243Z,98203.53
2022-08-22T03:58:05.589Z,98204.22
2022-08-22T03:59:42.731Z,98210.66
2022-08-22T04:01:02.131Z,98209.47
2022-08-22T04:02:42.399Z,98208.22
2022-08-22T04:03:55.344Z,98206.69
2022-08-22T04:05:14.708Z,98212.69
2022-08-22T04:06:31.518Z,98211.84
2022-08-22T04:07:33.328Z,98212.94
2022-08-22T04:08:43.919Z,98204.50
2022-08-22T04:10:05.142Z,98205.63
2022-08-22T04:11:12.632Z,98205.94
2022-08-22T04:12:14.007Z,98212.84
2022-08-22T04:13:15.368Z,98210.50
2022-08-22T04:14:35.679Z,98212.84
2022-08-22T04:16:03.382Z,98218.19
2022-08-22T04:17:04.775Z,98218.19
2022-08-22T04:18:24.594Z,98219.41
2022-08-22T04:19:37.621Z,98223.97
2022-08-22T04:20:59.287Z,98232.34
2022-08-22T04:22:09.586Z,98214.31
2022-08-22T04:23:29.566Z,98215.31
2022-08-22T04:24:40.330Z,98229.56
2022-08-22T04:25:53.240Z,98227.22
2022-08-22T04:26:57.645Z,98229.44
2022-08-22T04:28:11.217Z,98228.66
2022-08-22T04:29:16.620Z,98226.78
2022-08-22T04:30:17.993Z,98238.56
2022-08-22T04:31:25.761Z,98232.81
2022-08-22T04:32:37.357Z,98233.13
2022-08-22T04:33:47.509Z,98233.13
2022-08-22T04:34:52.153Z,98236.91
2022-08-22T04:35:59.694Z,98231.56
2022-08-22T04:37:03.995Z,98231.25
2022-08-22T04:38:19.935Z,98227.78
2022-08-22T04:39:45.941Z,98231.25
2022-08-22T04:40:54.262Z,98233.22
2022-08-22T04:42:32.208Z,98236.38
2022-08-22T04:43:38.969Z,98239.56
2022-08-22T04:44:47.893Z,98244.47
2022-08-22T04:45:57.188Z,98236.78
2022-08-22T04:47:02.237Z,98236.78
2022-08-22T04:48:03.658Z,98238.34
2022-08-22T04:49:07.428Z,98243.34
2022-08-22T04:50:21.664Z,98243.78
2022-08-22T04:51:27.589Z,98241.22
2022-08-22T04:52:45.597Z,98242.78
2022-08-22T04:54:03.973Z,98241.66
2022-08-22T04:55:11.673Z,98242.09
2022-08-22T04:56:22.180Z,98244.84
2022-08-22T04:57:35.790Z,98238.38
2022-08-22T04:58:48.595Z,98229.72
2022-08-22T04:59:50.188Z,98246.97
2022-08-22T05:01:07.909Z,98243.16
2022-08-22T05:02:11.331Z,98244.38
2022-08-22T05:03:15.012Z,98245.94
2022-08-22T05:04:27.565Z,98246.03
2022-08-22T05:05:32.427Z,98251.06
2022-08-22T05:06:37.592Z,98246.91
2022-08-22T05:07:42.029Z,98244.34
2022-08-22T05:08:45.773Z,98248.97
2022-08-22T05:09:55.394Z,98247.97
2022-08-22T05:10:57.422Z,98243.16
2022-08-22T05:12:04.873Z,98248.69
2022-08-22T05:13:07.917Z,98252.34
2022-08-22T05:14:16.198Z,98244.59
2022-08-22T05:15:23.070Z,98244.66
2022-08-22T05:16:28.959Z,98248.56
2022-08-22T05:17:31.826Z,98247.44
2022-08-22T05:18:36.257Z,98249.09
2022-08-22T05:19:40.045Z,98241.69
2022-08-22T05:20:44.791Z,98241.09
2022-08-22T05:21:48.553Z,98243.50
2022-08-22T05:22:57.249Z,98241.69
2022-08-22T05:24:01.602Z,98241.78
2022-08-22T05:25:05.382Z,98242.75
2022-08-22T05:26:07.430Z,98246.44
2022-08-22T05:27:11.490Z,98243.31
2022-08-22T05:28:23.090Z,98245.25
2022-08-22T05:29:27.823Z,98245.63
2022-08-22T05:30:30.020Z,98253.97
2022-08-22T05:31:41.177Z,98251.19
2022-08-22T05:32:55.718Z,98252.81
2022-08-22T05:34:01.980Z,98253.72
2022-08-22T05:35:05.667Z,98255.97
2022-08-22T05:36:07.142Z,98257.13
2022-08-22T05:37:11.714Z,98257.38
2022-08-22T05:38:15.882Z,98259.28
2022-08-22T05:39:25.207Z,98256.09
2022-08-22T05:40:28.466Z,98260.34
2022-08-22T05:41:35.416Z,98258.09
2022-08-22T05:42:37.070Z,98257.72
2022-08-22T05:43:40.606Z,98256.41
2022-08-22T05:44:42.126Z,98261.13
2022-08-22T05:45:46.174Z,98264.59
2022-08-22T05:47:07.819Z,98261.47
2022-08-22T05:48:16.146Z,98258.72
2022-08-22T05:49:20.554Z,98257.25
2022-08-22T05:50:34.211Z,98262.19
2022-08-22T05:51:42.185Z,98256.56
2022-08-22T05:53:02.589Z,98259.63
2022-08-22T05:54:14.332Z,98260.06
2022-08-22T05:55:24.852Z,98256.88
2022-08-22T05:56:34.618Z,98255.78
2022-08-22T05:57:38.173Z,98255.78
2022-08-22T05:58:39.522Z,98265.41
2022-08-22T05:59:42.781Z,98260.41
2022-08-22T06:00:47.301Z,98253.59
2022-08-22T06:02:00.803Z,98253.22
2022-08-22T06:03:28.800Z,98258.16
2022-08-22T06:04:30.234Z,98256.75
2022-08-22T06:05:33.477Z,98254.06
2022-08-22T06:06:41.502Z,98253.28
2022-08-22T06:07:48.668Z,98256.03
2022-08-22T06:09:12.898Z,98249.56
2022-08-22T06:10:32.788Z,98256.56
2022-08-22T06:11:55.786Z,98256.56
2022-08-22T06:13:01.636Z,98255.47
2022-08-22T06:14:13.056Z,98257.78
2022-08-22T06:15:20.947Z,98255.88
2022-08-22T06:16:28.685Z,98258.63
2022-08-22T06:17:35.677Z,98253.69
2022-08-22T06:18:40.035Z,98262.22
2022-08-22T06:19:44.727Z,98257.28
2022-08-22T06:20:58.127Z,98258.91
2022-08-22T06:22:00.633Z,98260.56
2022-08-22T06:23:02.632Z,98259.19
2022-08-22T06:24:05.466Z,98255.56
2022-08-22T06:25:11.325Z,98259.63
2022-08-22T06:26:20.279Z,98262.53
2022-08-22T06:27:26.087Z,98258.38
2022-08-22T06:28:34.458Z,98264.72
2022-08-22T06:29:37.865Z,98259.22
2022-08-22T06:30:39.714Z,98259.31
2022-08-22T06:31:42.874Z,98251.06
2022-08-22T06:32:59.889Z,98255.59
2022-08-22T06:34:01.807Z,98262.22
2022-08-22T06:35:06.977Z,98254.19
2022-08-22T06:36:14.299Z,98254.34
2022-08-22T06:37:23.544Z,98259.13
2022-08-22T06:38:29.363Z,98251.69
2022-08-22T06:39:35.412Z,98254.09
2022-08-22T06:40:36.885Z,98253.56
2022-08-22T06:41:45.033Z,98248.63
2022-08-22T06:42:49.975Z,98251.66
2022-08-22T06:43:51.928Z,98251.91
2022-08-22T06:45:00.373Z,98257.63
2022-08-22T06:46:01.938Z,98258.19
2022-08-22T06:47:06.011Z,98250.91
2022-08-22T06:48:07.724Z,98249.25
2022-08-22T06:49:09.898Z,98250.06
2022-08-22T06:50:14.008Z,98251.91
2022-08-22T06:51:17.257Z,98253.25
2022-08-22T06:52:20.927Z,98250.38
2022-08-22T06:53:28.164Z,98254.97
2022-08-22T06:54:34.465Z,98254.75
2022-08-22T06:55:38.366Z,98260.28
2022-08-22T06:56:42.273Z,98254.91
2022-08-22T06:57:49.431Z,98253.63
2022-08-22T06:58:54.503Z,98256.47
2022-08-22T06:59:57.050Z,98263.53
2022-08-22T07:01:11.723Z,98266.47
2022-08-22T07:02:26.274Z,98272.63
2022-08-22T07:03:50.779Z,98274.59
2022-08-22T07:04:52.273Z,98279.84
2022-08-22T07:05:55.286Z,98273.81
2022-08-22T07:06:58.704Z,98275.63
2022-08-22T07:08:04.958Z,98272.44
2022-08-22T07:09:07.322Z,98276.22
2022-08-22T07:10:11.058Z,98277.50
2022-08-22T07:11:47.890Z,98276.28
2022-08-22T07:12:51.692Z,98278.84
2022-08-22T07:13:58.290Z,98274.91
2022-08-22T07:15:08.610Z,98277.84
2022-08-22T07:16:10.327Z,98274.94
2022-08-22T07:17:18.045Z,98278.00
2022-08-22T07:18:20.766Z,98270.25
2022-08-22T07:19:30.541Z,98272.72
2022-08-22T07:20:35.832Z,98270.56
2022-08-22T07:21:45.434Z,98274.97
2022-08-22T07:22:55.544Z,98277.66
2022-08-22T07:23:58.450Z,98273.75
2022-08-22T07:25:03.556Z,98274.63
2022-08-22T07:26:05.018Z,98266.00
2022-08-22T07:27:15.837Z,98273.69
2022-08-22T07:28:20.060Z,98272.31
2022-08-22T07:29:27.411Z,98271.38
2022-08-22T07:30:38.590Z,98270.78
2022-08-22T07:31:49.907Z,98273.25
2022-08-22T07:33:25.305Z,98274.13
2022-08-22T07:34:36.276Z,98275.44
2022-08-22T07:35:42.097Z,98269.31
2022-08-22T07:37:13.172Z,98276.78
2022-08-22T07:38:32.977Z,98276.78
2022-08-22T07:39:40.552Z,98274.06
2022-08-22T07:40:46.871Z,98278.00
2022-08-22T07:42:08.525Z,98286.13
2022-08-22T07:43:21.704Z,98276.47
2022-08-22T07:44:25.403Z,98288.13
2022-08-22T07:45:26.934Z,98274.22
2022-08-22T07:46:40.710Z,98282.78
2022-08-22T07:47:49.234Z,98271.94
2022-08-22T07:49:11.336Z,98276.53
2022-08-22T07:50:17.039Z,98278.53
2022-08-22T07:51:21.935Z,98277.38
2022-08-22T07:52:23.672Z,98280.44
2022-08-22T07:53:30.108Z,98280.06
2022-08-22T07:54:46.834Z,98278.91
2022-08-22T07:55:49.739Z,98274.28
2022-08-22T07:57:20.855Z,98273.94
2022-08-22T07:58:24.269Z,98276.22
2022-08-22T07:59:26.561Z,98273.13
2022-08-22T08:00:28.676Z,98278.53
2022-08-22T08:01:30.321Z,98279.28
2022-08-22T08:02:32.313Z,98285.13
2022-08-22T08:03:33.893Z,98282.44
2022-08-22T08:04:40.237Z,98284.34
2022-08-22T08:05:43.702Z,98289.00
2022-08-22T08:06:48.038Z,98285.53
2022-08-22T08:07:51.774Z,98297.88
2022-08-22T08:08:54.158Z,98297.16
2022-08-22T08:10:07.910Z,98296.00
2022-08-22T08:11:13.499Z,98298.34
2022-08-22T08:12:15.977Z,98298.34
2022-08-22T08:13:22.790Z,98306.47
2022-08-22T08:14:25.455Z,98302.59
2022-08-22T08:15:27.075Z,98294.47
2022-08-22T08:16:30.987Z,98294.09
2022-08-22T08:17:33.764Z,98297.94
2022-08-22T08:18:36.093Z,98297.94
2022-08-22T08:19:40.981Z,98299.09
2022-08-22T08:20:42.405Z,98294.47
2022-08-22T08:21:52.074Z,98301.00
2022-08-22T08:22:54.523Z,98296.00
2022-08-22T08:23:56.493Z,98295.22
2022-08-22T08:24:58.879Z,98299.09
2022-08-22T08:26:06.931Z,98289.81
2022-08-22T08:27:11.893Z,98304.53
2022-08-22T08:28:14.039Z,98296.00
2022-08-22T08:29:16.765Z,98293.28
2022-08-22T08:30:21.508Z,98293.69
2022-08-22T08:31:22.910Z,98292.53
2022-08-22T08:32:25.470Z,98297.16
2022-08-22T08:33:27.597Z,98299.13
2022-08-22T08:34:30.567Z,98295.28
2022-08-22T08:36:02.112Z,98291.00
2022-08-22T08:37:03.185Z,98294.47
2022-08-22T08:38:10.621Z,98289.44
2022-08-22T08:39:21.186Z,98290.97
2022-08-22T08:40:28.322Z,98289.81
2022-08-22T08:41:48.444Z,98285.16
2022-08-22T08:42:49.838Z,98288.25
2022-08-22T08:43:51.229Z,98286.69
2022-08-22T08:45:18.127Z,98287.44
2022-08-22T08:46:19.563Z,98288.97
2022-08-22T08:47:39.826Z,98297.88
2022-08-22T08:49:09.545Z,98289.72
2022-08-22T08:50:29.603Z,98292.06
2022-08-22T08:51:49.714Z,98282.81
2022-08-22T08:53:09.617Z,98288.59
2022-08-22T08:54:17.850Z,98283.94
2022-08-22T08:55:21.866Z,98284.31
2022-08-22T08:56:30.342Z,98278.53
2022-08-22T08:57:41.298Z,98280.47
2022-08-22T08:59:01.834Z,98277.72
2022-08-22T09:00:09.086Z,98276.13
2022-08-22T09:01:32.208Z,98276.94
2022-08-22T09:02:52.466Z,98276.59
2022-08-22T09:04:15.205Z,98272.72
2022-08-22T09:05:16.938Z,98276.53
2022-08-22T09:06:42.513Z,98276.13
2022-08-22T09:07:53.294Z,98271.88
2022-08-22T09:08:55.883Z,98272.56
2022-08-22T09:09:57.433Z,98279.50
2022-08-22T09:10:58.946Z,98274.84
2022-08-22T09:12:15.613Z,98277.91
2022-08-22T09:13:34.550Z,98275.19
2022-08-22T09:14:45.432Z,98265.53
2022-08-22T09:16:05.296Z,98273.63
2022-08-22T09:17:06.988Z,98276.63
2022-08-22T09:18:12.074Z,98264.56
2022-08-22T09:19:49.828Z,98270.66
2022-08-22T09:21:14.279Z,98272.94
2022-08-22T09:24:18.959Z,98276.41
2022-08-22T09:25:23.728Z,98275.25
2022-08-22T09:26:40.519Z,98274.13
2022-08-22T09:27:48.042Z,98273.31
2022-08-22T09:29:01.518Z,98278.22
2022-08-22T09:30:05.830Z,98279.03
2022-08-22T09:32:35.109Z,98274.44
2022-08-22T09:33:53.862Z,98280.22
2022-08-22T09:35:16.814Z,98270.88
2022-08-22T09:36:29.258Z,98273.91
2022-08-22T09:37:45.481Z,98271.97
2022-08-22T09:39:13.809Z,98271.16
2022-08-22T09:40:33.802Z,98271.06
2022-08-22T09:41:35.206Z,98269.13
2022-08-22T09:42:39.752Z,98274.44
2022-08-22T09:43:48.988Z,98277.56
2022-08-22T09:44:59.403Z,98277.47
2022-08-22T09:46:18.531Z,98275.19
2022-08-22T09:47:26.927Z,98267.00
2022-08-22T09:48:40.002Z,98276.78
2022-08-22T09:49:49.669Z,98260.56
2022-08-22T09:51:31.269Z,98265.97
2022-08-22T09:52:34.618Z,98271.66
2022-08-22T09:53:43.823Z,98272.78
2022-08-22T09:54:48.660Z,98273.91
2022-08-22T09:56:11.765Z,98273.75
2022-08-22T09:57:17.215Z,98266.72
2022-08-22T09:58:41.628Z,98269.00
2022-08-22T09:59:58.486Z,98264.66
2022-08-22T10:01:03.892Z,98257.66
2022-08-22T10:02:21.882Z,98261.09
2022-08-22T10:03:30.932Z,98268.06
2022-08-22T10:04:32.319Z,98262.94
2022-08-22T10:05:44.264Z,98265.22
2022-08-22T10:06:55.477Z,98264.72
2022-08-22T10:08:01.610Z,98269.69
2022-08-22T10:09:09.864Z,98268.16
2022-08-22T10:10:27.526Z,98271.59
2022-08-22T10:11:49.178Z,98266.94
2022-08-22T10:12:56.696Z,98260.19
2022-08-22T10:14:03.501Z,98263.97
2022-08-22T10:15:13.610Z,98265.06
2022-08-22T10:16:15.099Z,98256.03
2022-08-22T10:17:21.937Z,98268.91
2022-08-22T10:18:29.569Z,98268.38
2022-08-22T10:19:36.024Z,98270.69
2022-08-22T10:20:45.396Z,98271.34
2022-08-22T10:21:49.623Z,98266.50
2022-08-22T10:23:11.078Z,98266.09
2022-08-22T10:24:25.267Z,98272.19
2022-08-22T10:25:36.792Z,98267.47
2022-08-22T10:26:43.262Z,98261.19
2022-08-22T10:27:44.647Z,98254.16
2022-08-22T10:28:52.426Z,98252.53
2022-08-22T10:29:53.822Z,98249.47
2022-08-22T10:31:07.134Z,98244.94
2022-08-22T10:32:28.507Z,98248.66
2022-08-22T10:33:38.153Z,98244.69
2022-08-22T10:34:45.535Z,98247.41
2022-08-22T10:35:46.867Z,98238.44
2022-08-22T10:37:07.861Z,98247.72
2022-08-22T10:38:17.550Z,98247.97
2022-08-22T10:39:23.214Z,98243.56
2022-08-22T10:40:27.366Z,98244.91
2022-08-22T10:41:37.450Z,98247.13
2022-08-22T10:42:43.926Z,98247.84
2022-08-22T10:43:56.548Z,98238.69
2022-08-22T10:45:36.681Z,98246.84
2022-08-22T10:46:49.817Z,98241.41
2022-08-22T10:47:53.323Z,98235.63
2022-08-22T10:49:05.811Z,98238.34
2022-08-22T10:50:17.529Z,98237.84
2022-08-22T10:51:32.526Z,98238.69
2022-08-22T10:52:41.290Z,98235.13
2022-08-22T10:54:19.839Z,98234.50
2022-08-22T10:55:26.214Z,98229.97
2022-08-22T10:56:34.962Z,98218.44
2022-08-22T10:57:55.341Z,98220.28
2022-08-22T10:58:59.773Z,98221.97
2022-08-22T11:00:15.972Z,98221.59
2022-08-22T11:01:41.533Z,98221.97
2022-08-22T11:02:53.250Z,98220.53
2022-08-22T11:04:12.903Z,98219.41
2022-08-22T11:05:26.518Z,98208.34
2022-08-22T11:06:35.611Z,98213.69
2022-08-22T11:07:39.731Z,98212.31
2022-08-22T11:09:01.620Z,98207.72
2022-08-22T11:10:09.489Z,98194.19
2022-08-22T11:11:20.050Z,98206.09
2022-08-22T11:12:34.523Z,98202.69
2022-08-22T11:13:43.399Z,98196.59
2022-08-22T11:14:47.707Z,98203.00
2022-08-22T11:16:04.348Z,98200.00
2022-08-22T11:17:17.884Z,98201.06
2022-08-22T11:18:35.469Z,98198.81
2022-08-22T11:19:36.902Z,98201.47
2022-08-22T11:20:48.122Z,98198.41
2022-08-22T11:22:11.374Z,98197.03
2022-08-22T11:23:35.948Z,98205.66
2022-08-22T11:24:46.510Z,98193.25
2022-08-22T11:26:06.620Z,98193.41
2022-08-22T11:27:20.966Z,98198.03
2022-08-22T11:28:42.449Z,98189.84
2022-08-22T11:30:02.219Z,98198.88
2022-08-22T11:31:22.730Z,98189.25
2022-08-22T11:32:43.225Z,98189.47
2022-08-22T11:33:54.649Z,98187.28
2022-08-22T11:35:02.765Z,98184.34
2022-08-22T11:36:04.571Z,98180.25
2022-08-22T11:37:18.945Z,98185.63
2022-08-22T11:38:37.699Z,98184.66
2022-08-22T11:40:05.604Z,98186.41
2022-08-22T11:41:28.294Z,98191.03
2022-08-22T11:42:55.963Z,98179.53
2022-08-22T11:44:07.669Z,98185.03
2022-08-22T11:45:14.838Z,98179.66
2022-08-22T11:46:19.742Z,98185.47
2022-08-22T11:47:26.894Z,98175.56
2022-08-22T11:48:36.581Z,98168.84
2022-08-22T11:49:37.970Z,98182.56
2022-08-22T11:50:44.977Z,98175.41
2022-08-22T11:51:58.164Z,98174.50
2022-08-22T11:53:18.842Z,98174.31
2022-08-22T11:54:31.014Z,98168.56
2022-08-22T11:55:35.692Z,98172.63
2022-08-22T11:56:43.457Z,98161.25
2022-08-22T11:57:51.998Z,98173.50
2022-08-22T11:58:58.930Z,98171.94
2022-08-22T12:00:06.904Z,98170.84
2022-08-22T12:01:17.158Z,98172.78
2022-08-22T12:02:31.071Z,98167.34
2022-08-22T12:03:41.520Z,98172.91
2022-08-22T12:05:06.326Z,98170.28
2022-08-22T12:06:25.516Z,98168.22
2022-08-22T12:07:39.124Z,98163.28
2022-08-22T12:08:40.935Z,98157.16
2022-08-22T12:09:47.622Z,98162.75
2022-08-22T12:10:57.848Z,98162.72
2022-08-22T12:12:02.171Z,98159.47
2022-08-22T12:13:11.064Z,98158.06
2022-08-22T12:14:22.174Z,98164.06
2022-08-22T12:15:33.484Z,98162.75
2022-08-22T12:16:34.922Z,98155.97
2022-08-22T12:18:01.085Z,98160.88
2022-08-22T12:19:22.951Z,98158.78
2022-08-22T12:20:45.395Z,98166.03
2022-08-22T12:22:05.405Z,98153.78
2022-08-22T12:23:43.226Z,98155.03
2022-08-22T12:25:03.136Z,98156.03
2022-08-22T12:26:14.096Z,98151.91
2022-08-22T12:27:29.232Z,98153.97
2022-08-22T12:28:39.681Z,98147.63
2022-08-22T12:30:01.739Z,98149.09
2022-08-22T12:31:06.300Z,98150.50
2022-08-22T12:32:27.508Z,98151.16
2022-08-22T12:33:44.795Z,98145.38
2022-08-22T12:34:55.608Z,98149.53
2022-08-22T12:36:02.949Z,98147.88
2022-08-22T12:37:15.075Z,98151.47
2022-08-22T12:38:28.336Z,98150.59
2022-08-22T12:39:30.918Z,98147.22
2022-08-22T12:40:36.453Z,98148.72
2022-08-22T12:41:40.810Z,98142.28
2022-08-22T12:42:54.417Z,98145.88
2022-08-22T12:43:59.622Z,98149.38
2022-08-22T12:45:08.972Z,98139.66
2022-08-22T12:46:22.892Z,98139.53
2022-08-22T12:47:43.076Z,98134.41
2022-08-22T12:48:48.903Z,98130.78
2022-08-22T12:50:25.641Z,98126.75
2022-08-22T12:51:41.776Z,98135.28
2022-08-22T12:52:44.384Z,98129.03
2022-08-22T12:54:04.681Z,98125.13
2022-08-22T12:55:06.094Z,98131.88
2022-08-22T12:56:25.145Z,98130.16
2022-08-22T12:57:32.911Z,98125.22
2022-08-22T12:58:53.018Z,98133.09
2022-08-22T13:00:03.340Z,98126.63
2022-08-22T13:01:08.288Z,98132.19
2022-08-22T13:02:15.576Z,98132.72
2022-08-22T13:03:29.704Z,98132.72
2022-08-22T13:04:34.329Z,98122.53
2022-08-22T13:05:40.838Z,98129.31
2022-08-22T13:06:48.842Z,98127.53
2022-08-22T13:07:57.749Z,98124.31
2022-08-22T13:09:28.956Z,98126.22
2022-08-22T13:10:50.389Z,98117.34
2022-08-22T13:11:54.468Z,98126.44
2022-08-22T13:12:59.934Z,98117.41
2022-08-22T13:14:07.186Z,98117.69
2022-08-22T13:15:20.995Z,98122.63
2022-08-22T13:16:24.893Z,98118.94
2022-08-22T13:17:26.642Z,98124.00
2022-08-22T13:18:35.601Z,98119.59
2022-08-22T13:19:45.407Z,98117.00
2022-08-22T13:20:49.193Z,98113.09
2022-08-22T13:21:57.042Z,98119.72
2022-08-22T13:22:59.466Z,98118.81
2022-08-22T13:24:10.834Z,98116.28
2022-08-22T13:25:25.860Z,98112.97
2022-08-22T13:26:34.059Z,98114.09
2022-08-22T13:27:50.979Z,98108.31
2022-08-22T13:29:24.173Z,98115.50
2022-08-22T13:30:23.241Z,98114.31
2022-08-22T13:31:27.191Z,98119.44
2022-08-22T13:32:35.605Z,98112.56
2022-08-22T13:33:41.333Z,98118.47
2022-08-22T13:34:48.474Z,98120.13
2022-08-22T13:35:55.204Z,98110.41
2022-08-22T13:36:59.362Z,98101.94
2022-08-22T13:38:12.063Z,98112.28
2022-08-22T13:39:13.901Z,98103.88
2022-08-22T13:40:28.009Z,98107.72
2022-08-22T13:41:32.692Z,98107.59
2022-08-22T13:42:39.944Z,98109.19
2022-08-22T13:44:10.168Z,98109.44
2022-08-22T13:45:14.142Z,98105.81
2022-08-22T13:46:22.206Z,98104.94
2022-08-22T13:47:25.695Z,98106.00
2022-08-22T13:48:29.502Z,98104.00